Time;durP1;ratioP1;P1;durP2;ratioP2;P2;SDS_P1;SDS_P2;PMS_P1;PMS_P2;Temp;Humidity;BMP_temperature;BMP_pressure;BME280_temperature;BME280_humidity;BME280_pressure;Samples;Min_cycle;Max_cycle;Signal;HPM_P1;HPM_P2
2022/04/29 00:10:19;;;;;;;7.17;3.23;;;;;;;13.63;48.07;100872.00;31355416;28;20103;-72
2022/04/29 00:25:21;;;;;;;3.57;1.80;;;;;;;13.51;48.76;100878.84;31356622;28;20122;-72
2022/04/29 00:40:27;;;;;;;5.67;1.77;;;;;;;13.55;49.33;100856.97;31339062;28;20057;-72
2022/04/29 00:55:30;;;;;;;3.80;2.20;;;;;;;13.53;49.36;100859.34;31360215;28;20049;-72
2022/04/29 01:10:32;;;;;;;3.33;1.77;;;;;;;13.50;50.17;100838.34;31388681;28;20052;-73
2022/04/29 01:25:34;;;;;;;4.33;2.20;;;;;;;13.55;50.88;100832.41;31384451;28;20053;-73
2022/04/29 01:40:36;;;;;;;4.17;2.33;;;;;;;13.40;51.42;100844.81;31349922;28;20071;-73
2022/04/29 01:55:38;;;;;;;6.20;2.50;;;;;;;13.27;51.70;100839.19;31397616;28;20057;-74
2022/04/29 02:10:40;;;;;;;3.67;2.23;;;;;;;13.19;51.61;100846.75;31384333;28;20056;-72
2022/04/29 02:25:42;;;;;;;4.90;2.27;;;;;;;13.04;52.09;100867.22;31359544;28;20059;-72
2022/04/29 02:40:44;;;;;;;11.80;2.97;;;;;;;12.69;53.29;100878.75;31377938;28;20056;-73
2022/04/29 02:55:45;;;;;;;4.43;1.97;;;;;;;12.72;52.78;100878.69;31361283;28;20063;-73
2022/04/29 03:10:47;;;;;;;5.33;2.30;;;;;;;12.73;52.09;100901.25;31345917;28;20059;-73
2022/04/29 03:25:50;;;;;;;3.00;1.80;;;;;;;12.39;52.24;100902.13;31350114;28;20056;-72
2022/04/29 03:40:53;;;;;;;4.20;1.90;;;;;;;12.35;51.08;100920.47;31347267;28;20053;-73
2022/04/29 03:55:55;;;;;;;3.43;1.87;;;;;;;12.54;49.46;100925.25;31344415;28;20055;-72
2022/04/29 04:10:56;;;;;;;3.23;1.83;;;;;;;12.85;48.94;100925.16;31355915;28;20045;-72
2022/04/29 04:25:58;;;;;;;3.90;2.37;;;;;;;13.37;47.92;100938.34;31353576;28;20053;-72
2022/04/29 04:41:00;;;;;;;3.03;1.50;;;;;;;13.61;46.12;100942.59;31348776;28;20055;-73
2022/04/29 04:56:03;;;;;;;4.10;1.43;;;;;;;13.81;44.51;100935.19;31327103;28;20067;-73
2022/04/29 05:11:05;;;;;;;2.33;1.67;;;;;;;14.03;43.85;100948.41;31332137;28;20683;-73
2022/04/29 05:26:07;;;;;;;7.50;1.43;;;;;;;14.33;42.32;100942.69;31330463;28;20057;-72
2022/04/29 05:56:30;;;;;;;5.40;1.70;;;;;;;14.55;41.59;100962.91;31364365;28;20044;-72
2022/04/29 06:11:32;;;;;;;2.97;1.67;;;;;;;14.72;42.10;100979.31;31361858;28;20037;-72
2022/04/29 06:26:34;;;;;;;2.87;1.60;;;;;;;14.93;42.11;100998.72;31417622;28;20064;-74
2022/04/29 06:41:36;;;;;;;8.10;1.70;;;;;;;15.33;42.27;100996.59;31361548;28;20057;-71
2022/04/29 06:56:38;;;;;;;3.57;1.53;;;;;;;16.52;41.46;100992.97;31368567;28;20049;-70
2022/04/29 07:11:40;;;;;;;5.13;1.90;;;;;;;17.27;39.22;100982.38;31334590;28;20052;-70
2022/04/29 07:26:42;;;;;;;7.15;1.75;;;;;;;18.22;37.22;100994.00;31344118;28;20088;-71
2022/04/29 07:41:44;;;;;;;5.57;1.70;;;;;;;19.71;36.44;100988.03;31330479;28;20052;-70
2022/04/29 07:56:46;;;;;;;6.28;3.30;;;;;;;20.92;34.08;100979.75;31353728;28;20049;-78
2022/04/29 08:11:48;;;;;;;3.97;1.70;;;;;;;20.74;34.39;100955.78;31340005;28;20050;-81
2022/04/29 08:26:50;;;;;;;5.43;1.92;;;;;;;20.43;34.55;100936.78;31372356;28;20049;-79
2022/04/29 08:41:53;;;;;;;6.13;2.42;;;;;;;20.42;34.91;100919.47;31359703;28;20048;-80
2022/04/29 09:12:26;;;;;;;5.70;1.65;;;;;;;20.50;34.91;100930.94;31380502;28;22636;-80
2022/04/29 09:27:28;;;;;;;3.42;1.30;;;;;;;20.80;34.86;100909.75;31376018;28;20045;-80
2022/04/29 09:42:43;;;;;;;3.20;2.13;;;;;;;21.40;33.23;100901.22;31398100;28;20049;-78
2022/04/29 09:57:58;;;;;;;6.40;3.75;;;;;;;22.11;31.92;100902.22;31403702;28;20075;-81
2022/04/29 10:13:02;;;;;;;4.57;1.80;;;;;;;21.29;32.34;100906.50;31423054;28;20056;-79
2022/04/29 10:28:07;;;;;;;2.60;1.50;;;;;;;20.99;32.81;100899.38;31371851;28;20140;-80
2022/04/29 10:43:11;;;;;;;4.43;1.77;;;;;;;21.29;32.94;100898.22;31434090;28;20048;-80
2022/04/29 10:58:24;;;;;;;4.03;1.63;;;;;;;21.21;32.45;100886.03;31409370;28;20080;-80
2022/04/29 11:13:27;;;;;;;2.53;1.20;;;;;;;20.47;33.31;100878.69;31388757;28;20052;-72
2022/04/29 11:28:30;;;;;;;5.37;1.50;;;;;;;20.30;33.58;100857.00;31371367;28;20047;-73
2022/04/29 11:43:32;;;;;;;4.73;2.33;;;;;;;20.00;33.46;100856.06;31363881;28;20076;-79
2022/04/29 11:58:38;;;;;;;10.95;1.80;;;;;;;19.35;33.12;100851.91;31383614;28;20068;-81
2022/04/29 12:13:39;;;;;;;11.80;1.60;;;;;;;19.05;32.64;100855.56;31403569;28;20068;-80
2022/04/29 12:28:54;;;;;;;7.00;1.57;;;;;;;18.26;33.29;100846.22;31337127;28;20444;-71
2022/04/29 12:44:11;;;;;;;5.17;1.80;;;;;;;17.34;33.67;100856.69;31335890;28;20053;-69
2022/04/29 12:59:22;;;;;;;2.22;1.10;;;;;;;16.82;34.26;100859.28;31381100;28;20072;-70
2022/04/29 13:14:24;;;;;;;3.85;1.60;;;;;;;16.47;35.11;100869.44;31363125;28;20049;-71
2022/04/29 13:29:25;;;;;;;4.13;1.77;;;;;;;16.20;37.57;100878.84;31365322;28;20049;-70
2022/04/29 13:44:28;;;;;;;4.30;1.90;;;;;;;16.01;38.27;100886.06;31318979;28;20050;-78
2022/04/29 13:59:32;;;;;;;4.73;2.30;;;;;;;15.71;40.47;100883.81;31215219;28;20053;-71
2022/04/29 14:14:33;;;;;;;3.47;1.90;;;;;;;15.54;42.12;100896.78;31220306;28;20080;-76
2022/04/29 14:29:35;;;;;;;3.63;2.10;;;;;;;15.39;41.90;100905.78;31245316;28;20073;-73
2022/04/29 14:44:38;;;;;;;3.90;2.00;;;;;;;15.18;42.67;100913.34;31255404;28;20493;-71
2022/04/29 14:59:41;;;;;;;4.57;2.03;;;;;;;14.84;47.40;100922.03;31327497;28;20133;-74
2022/04/29 15:30:07;;;;;;;3.97;2.47;;;;;;;13.72;57.08;100932.22;31347731;28;20061;-70
2022/04/29 15:45:14;;;;;;;3.30;2.03;;;;;;;13.35;61.67;100951.63;31343367;28;20267;-75
2022/04/29 16:00:16;;;;;;;5.57;2.07;;;;;;;12.85;66.54;100968.78;31323209;28;20049;-69
2022/04/29 16:15:18;;;;;;;3.70;2.10;;;;;;;12.21;70.61;100975.13;31306100;28;20144;-76
2022/04/29 16:30:20;;;;;;;3.10;2.00;;;;;;;11.90;73.63;100972.34;31347781;28;20053;-74
2022/04/29 16:45:25;;;;;;;9.57;4.00;;;;;;;11.25;78.32;100979.56;31299603;28;20156;-69
2022/04/29 17:00:28;;;;;;;7.47;2.23;;;;;;;11.02;85.69;100973.94;31236841;28;20068;-70
2022/04/29 17:15:30;;;;;;;5.03;2.43;;;;;;;10.88;89.33;100957.72;31232596;28;20053;-71
2022/04/29 17:30:32;;;;;;;5.07;2.40;;;;;;;10.81;90.46;100968.66;31252979;28;20049;-72
2022/04/29 17:45:35;;;;;;;4.83;2.30;;;;;;;10.72;91.55;101003.63;31287541;28;20072;-72
2022/04/29 18:00:38;;;;;;;6.40;3.07;;;;;;;10.63;97.00;101022.31;31375421;28;20080;-71
2022/04/29 18:15:43;;;;;;;6.80;3.07;;;;;;;10.50;94.36;101014.59;31342776;28;20140;-71
2022/04/29 18:30:46;;;;;;;4.43;2.37;;;;;;;10.61;94.27;101011.06;31353782;28;20713;-70
2022/04/29 18:45:48;;;;;;;5.20;2.47;;;;;;;10.53;93.81;101029.34;31311914;28;20056;-68
2022/04/29 19:00:50;;;;;;;3.33;1.90;;;;;;;10.31;92.03;101028.66;31345011;28;20052;-71
2022/04/29 19:15:52;;;;;;;3.40;1.90;;;;;;;10.21;94.27;101045.72;31348534;28;20477;-70
2022/04/29 19:30:54;;;;;;;3.53;1.70;;;;;;;10.12;93.55;101031.78;31331575;28;20055;-68
2022/04/29 19:46:12;;;;;;;8.27;4.27;;;;;;;10.13;93.58;101025.22;31317241;28;20060;-70
2022/04/29 20:16:35;;;;;;;3.20;2.20;;;;;;;9.60;100.00;101034.22;31347526;28;20533;-70
2022/04/29 20:31:37;;;;;;;4.50;2.47;;;;;;;9.41;100.00;101042.75;31321823;28;20049;-71
2022/04/29 20:46:41;;;;;;;3.53;1.90;;;;;;;9.22;100.00;101047.34;31326736;28;20057;-71
2022/04/29 21:01:43;;;;;;;4.37;2.30;;;;;;;8.97;100.00;101040.38;31341675;28;20045;-70
2022/04/29 21:16:46;;;;;;;3.47;2.00;;;;;;;8.88;100.00;101033.41;31356706;28;20049;-72
2022/04/29 21:31:47;;;;;;;3.77;2.37;;;;;;;8.96;100.00;101023.38;31374346;28;20049;-72
2022/04/29 21:46:49;;;;;;;3.00;2.03;;;;;;;8.88;100.00;101011.75;31385159;28;20053;-71
2022/04/29 22:01:52;;;;;;;7.27;2.60;;;;;;;8.97;100.00;101011.38;31393612;28;20063;-70
2022/04/29 22:16:54;;;;;;;3.93;2.67;;;;;;;9.10;100.00;100974.63;31369754;28;20114;-71
2022/04/29 22:31:56;;;;;;;9.43;3.60;;;;;;;9.06;100.00;100967.66;31376770;28;20045;-72
2022/04/29 22:46:58;;;;;;;7.87;3.07;;;;;;;8.93;100.00;100964.56;31385668;28;20052;-71
2022/04/29 23:02:01;;;;;;;6.90;3.13;;;;;;;8.96;100.00;100936.72;31365451;28;20045;-71
2022/04/29 23:19:11;;;;;;;4.73;3.20;;;;;;;9.04;100.00;100940.94;31378927;28;20052;-71
2022/04/29 23:32:26;;;;;;;7.83;3.20;;;;;;;9.05;100.00;100950.63;31347435;28;20045;-71
2022/04/29 23:47:28;;;;;;;4.13;2.97;;;;;;;9.16;100.00;100940.56;31359671;28;20070;-70
